createdAt,value
2023-04-03T00:01:08.453Z,88.76
2023-04-03T00:03:43.769Z,89.28
2023-04-03T00:06:37.359Z,89.41
2023-04-03T00:09:12.078Z,90.60
2023-04-03T00:11:53.420Z,88.40
2023-04-03T00:14:29.916Z,87.59
2023-04-03T00:17:17.887Z,88.45
2023-04-03T00:19:54.551Z,89.18
2023-04-03T00:22:29.061Z,89.04
2023-04-03T00:25:04.927Z,88.43
2023-04-03T00:27:50.885Z,88.89
2023-04-03T00:30:48.063Z,88.17
2023-04-03T00:33:29.754Z,89.22
2023-04-03T00:36:13.883Z,89.79
2023-04-03T00:38:48.764Z,89.38
2023-04-03T00:41:23.665Z,89.74
2023-04-03T00:44:00.137Z,89.51
2023-04-03T00:46:28.235Z,89.64
2023-04-03T00:48:59.920Z,89.64
2023-04-03T00:51:48.518Z,90.00
2023-04-03T00:54:19.289Z,91.40
2023-04-03T00:56:57.185Z,89.92
2023-04-03T00:59:53.883Z,92.68
2023-04-03T01:02:47.107Z,93.02
2023-04-03T01:05:20.940Z,93.16
2023-04-03T01:07:55.108Z,94.34
2023-04-03T01:10:34.349Z,95.44
2023-04-03T01:13:20.051Z,95.63
2023-04-03T01:15:56.423Z,97.23
2023-04-03T01:18:35.702Z,94.73
2023-04-03T01:21:38.087Z,97.68
2023-04-03T01:24:30.086Z,95.85
2023-04-03T01:27:03.533Z,95.64
2023-04-03T01:29:37.054Z,92.89
2023-04-03T01:35:30.823Z,94.89
2023-04-03T01:38:14.150Z,94.80
2023-04-03T01:40:50.191Z,93.53
2023-04-03T01:43:34.726Z,91.81
2023-04-03T01:46:18.458Z,88.14
2023-04-03T01:48:54.314Z,91.88
2023-04-03T01:51:27.522Z,86.51
2023-04-03T01:53:58.917Z,88.43
2023-04-03T01:56:57.345Z,87.18
2023-04-03T01:59:30.430Z,88.44
2023-04-03T02:02:10.079Z,86.83
2023-04-03T02:04:40.799Z,85.85
2023-04-03T02:07:32.301Z,85.98
2023-04-03T02:10:15.383Z,85.75
2023-04-03T02:12:59.337Z,82.48
2023-04-03T02:15:49.436Z,80.68
2023-04-03T02:18:23.240Z,80.36
2023-04-03T02:21:00.109Z,79.42
2023-04-03T02:23:40.207Z,80.91
2023-04-03T02:26:29.374Z,81.27
2023-04-03T02:29:02.375Z,78.48
2023-04-03T02:31:50.324Z,81.74
2023-04-03T02:34:27.109Z,80.34
2023-04-03T02:37:00.105Z,80.79
2023-04-03T02:39:33.312Z,79.30
2023-04-03T02:42:01.251Z,81.34
2023-04-03T02:44:38.318Z,79.93
2023-04-03T02:47:18.186Z,80.04
2023-04-03T02:50:01.221Z,79.42
2023-04-03T02:52:29.851Z,79.67
2023-04-03T02:55:11.755Z,76.87
2023-04-03T02:57:59.976Z,78.50
2023-04-03T03:00:33.297Z,75.36
2023-04-03T03:03:13.637Z,77.91
2023-04-03T03:05:52.503Z,77.83
2023-04-03T03:08:38.556Z,77.87
2023-04-03T03:11:20.056Z,78.63
2023-04-03T03:13:56.417Z,78.63
2023-04-03T03:16:38.107Z,78.32
2023-04-03T03:19:22.525Z,76.63
2023-04-03T03:21:55.306Z,74.58
2023-04-03T03:24:23.291Z,74.21
2023-04-03T03:26:59.180Z,73.86
2023-04-03T03:29:57.567Z,71.94
2023-04-03T03:32:33.575Z,71.94
2023-04-03T03:35:06.500Z,72.18
2023-04-03T03:37:52.039Z,72.24
2023-04-03T03:40:30.723Z,72.24
2023-04-03T03:43:01.933Z,69.03
2023-04-03T03:45:51.243Z,70.62
2023-04-03T03:48:44.704Z,71.32
2023-04-03T03:51:24.508Z,71.54
2023-04-03T03:53:57.998Z,71.39
2023-04-03T03:56:32.301Z,71.58
2023-04-03T03:59:05.099Z,72.18
2023-04-03T04:01:38.992Z,70.31
2023-04-03T04:04:12.184Z,69.83
2023-04-03T04:06:43.133Z,69.98
2023-04-03T04:09:14.204Z,69.29
2023-04-03T04:11:47.140Z,69.01
2023-04-03T04:14:18.119Z,67.42
2023-04-03T04:16:52.792Z,68.53
2023-04-03T04:19:39.294Z,66.19
2023-04-03T04:22:30.318Z,65.76
2023-04-03T04:25:01.591Z,66.63
2023-04-03T04:28:03.718Z,67.40
2023-04-03T04:30:36.941Z,65.85
2023-04-03T04:33:05.151Z,65.21
2023-04-03T04:35:58.780Z,65.40
2023-04-03T04:38:32.101Z,65.49
2023-04-03T04:41:05.188Z,65.96
2023-04-03T04:43:44.170Z,66.20
2023-04-03T04:46:26.677Z,65.48
2023-04-03T04:49:00.899Z,65.77
2023-04-03T04:51:41.051Z,65.73
2023-04-03T04:54:12.720Z,64.63
2023-04-03T04:56:50.206Z,65.71
2023-04-03T04:59:23.318Z,65.88
2023-04-03T05:02:03.922Z,65.89
2023-04-03T05:04:57.453Z,65.36
2023-04-03T05:07:31.807Z,66.64
2023-04-03T05:10:16.374Z,66.40
2023-04-03T05:13:02.215Z,66.08
2023-04-03T05:15:30.320Z,67.01
2023-04-03T05:18:04.784Z,66.74
2023-04-03T05:20:46.095Z,66.91
2023-04-03T05:23:18.885Z,65.66
2023-04-03T05:25:59.379Z,64.28
2023-04-03T05:28:33.457Z,66.13
2023-04-03T05:31:06.533Z,66.55
2023-04-03T05:34:15.597Z,66.64
2023-04-03T05:36:48.377Z,66.09
2023-04-03T05:39:42.191Z,66.17
2023-04-03T05:42:22.901Z,66.28
2023-04-03T05:45:05.528Z,65.12
2023-04-03T05:47:36.983Z,64.99
2023-04-03T05:50:36.275Z,65.48
2023-04-03T05:53:19.596Z,63.92
2023-04-03T05:58:50.721Z,66.08
2023-04-03T06:01:32.547Z,64.75
2023-04-03T06:04:06.462Z,63.71
2023-04-03T06:06:57.486Z,64.46
2023-04-03T06:09:29.535Z,64.89
2023-04-03T06:12:02.854Z,63.39
2023-04-03T06:14:56.223Z,64.59
2023-04-03T06:17:32.329Z,65.32
2023-04-03T06:20:00.802Z,65.83
2023-04-03T06:22:32.582Z,66.26
2023-04-03T06:25:07.569Z,64.40
2023-04-03T06:27:40.491Z,65.01
2023-04-03T06:30:14.188Z,65.51
2023-04-03T06:32:47.165Z,66.64
2023-04-03T06:35:20.272Z,65.13
2023-04-03T06:38:01.653Z,84.29
2023-04-03T06:40:42.943Z,85.26
2023-04-03T06:43:24.387Z,77.07
2023-04-03T06:49:13.328Z,64.75
2023-04-03T06:51:41.613Z,67.50
2023-04-03T06:54:34.908Z,66.77
2023-04-03T06:57:07.729Z,64.27
2023-04-03T06:59:39.073Z,65.13
2023-04-03T07:02:10.642Z,66.11
2023-04-03T07:04:47.548Z,65.88
2023-04-03T07:07:27.992Z,65.93
2023-04-03T07:09:59.533Z,64.35
2023-04-03T07:12:33.635Z,65.03
2023-04-03T07:15:11.052Z,64.78
2023-04-03T07:17:53.032Z,63.18
2023-04-03T07:20:25.917Z,66.43
2023-04-03T07:23:00.106Z,66.13
2023-04-03T07:25:34.106Z,66.40
2023-04-03T07:28:14.318Z,66.88
2023-04-03T07:30:49.598Z,65.78
2023-04-03T07:33:26.532Z,65.46
2023-04-03T07:35:54.701Z,66.02
2023-04-03T07:38:28.180Z,65.92
2023-04-03T07:41:08.214Z,65.49
2023-04-03T07:43:47.334Z,64.74
2023-04-03T07:46:30.752Z,64.67
2023-04-03T07:49:05.022Z,64.88
2023-04-03T07:51:58.203Z,65.70
2023-04-03T07:54:45.973Z,66.67
2023-04-03T07:57:18.885Z,68.29
2023-04-03T07:59:58.133Z,67.21
2023-04-03T08:02:37.222Z,65.84
2023-04-03T08:05:14.039Z,67.49
2023-04-03T08:07:42.103Z,67.67
2023-04-03T08:10:22.872Z,68.75
2023-04-03T08:13:00.650Z,67.36
2023-04-03T08:15:48.842Z,68.05
2023-04-03T08:18:18.002Z,67.95
2023-04-03T08:20:48.715Z,67.59
2023-04-03T08:23:19.931Z,67.11
2023-04-03T08:25:48.353Z,66.43
2023-04-03T08:28:21.266Z,67.29
2023-04-03T08:30:49.254Z,67.87
2023-04-03T08:33:26.236Z,67.62
2023-04-03T08:35:56.677Z,68.20
2023-04-03T08:38:24.630Z,67.73
2023-04-03T08:41:07.329Z,67.54
2023-04-03T08:43:56.794Z,67.03
2023-04-03T08:46:29.818Z,68.07
2023-04-03T08:49:00.501Z,68.84
2023-04-03T08:51:33.684Z,67.00
2023-04-03T08:56:59.405Z,67.84
2023-04-03T08:59:30.655Z,68.95
2023-04-03T09:02:00.177Z,69.25
2023-04-03T09:04:31.413Z,67.77
2023-04-03T09:07:10.809Z,67.67
2023-04-03T09:09:46.955Z,69.63
2023-04-03T09:12:27.988Z,68.40
2023-04-03T09:15:39.205Z,68.35
2023-04-03T09:18:24.782Z,68.08
2023-04-03T09:21:02.081Z,66.59
2023-04-03T09:23:49.758Z,70.18
2023-04-03T09:26:23.824Z,70.04
2023-04-03T09:29:01.844Z,70.90
2023-04-03T09:31:35.368Z,69.17
2023-04-03T09:34:10.252Z,67.87
2023-04-03T09:37:08.101Z,69.43
2023-04-03T09:40:01.811Z,67.39
2023-04-03T09:42:30.990Z,66.42
2023-04-03T09:45:09.076Z,65.49
2023-04-03T09:47:40.956Z,65.81
2023-04-03T09:50:27.555Z,68.03
2023-04-03T09:53:00.098Z,65.11
2023-04-03T09:55:37.187Z,65.88
2023-04-03T09:58:42.717Z,67.82
2023-04-03T10:01:30.315Z,66.11
2023-04-03T10:04:25.148Z,65.26
2023-04-03T10:06:57.974Z,65.51
2023-04-03T10:09:30.420Z,65.83
2023-04-03T10:12:09.437Z,67.37
2023-04-03T10:15:00.499Z,68.19
2023-04-03T10:17:54.028Z,64.15
2023-04-03T10:20:29.841Z,65.03
2023-04-03T10:23:25.467Z,64.06
2023-04-03T10:26:19.678Z,61.55
2023-04-03T10:29:30.784Z,64.24
2023-04-03T10:32:41.632Z,62.42
2023-04-03T10:35:33.971Z,64.99
2023-04-03T10:38:57.714Z,65.22
2023-04-03T10:41:46.841Z,64.57
2023-04-03T10:44:34.518Z,62.45
2023-04-03T10:47:17.439Z,61.72
2023-04-03T10:49:57.093Z,62.34
2023-04-03T10:53:00.805Z,61.10
2023-04-03T10:55:39.497Z,61.27
2023-04-03T10:58:10.611Z,62.49
2023-04-03T11:00:46.048Z,62.81
2023-04-03T11:03:34.634Z,59.69
2023-04-03T11:06:04.489Z,63.04
2023-04-03T11:09:01.913Z,61.56
2023-04-03T11:11:44.012Z,60.88
2023-04-03T11:14:18.638Z,60.99
2023-04-03T11:16:58.711Z,59.41
2023-04-03T11:19:57.214Z,61.33
2023-04-03T11:22:34.531Z,60.60
2023-04-03T11:25:12.721Z,59.31
2023-04-03T11:27:44.666Z,59.45
2023-04-03T11:30:22.760Z,59.89
2023-04-03T11:33:05.924Z,59.99
2023-04-03T11:35:40.662Z,58.63
2023-04-03T11:38:37.187Z,59.60
2023-04-03T11:41:35.324Z,60.77
2023-04-03T11:44:08.135Z,57.48
2023-04-03T11:46:57.630Z,59.30
2023-04-03T11:50:03.436Z,57.51
2023-04-03T11:52:45.166Z,55.29
2023-04-03T11:55:33.784Z,57.45
2023-04-03T11:58:15.638Z,56.69
2023-04-03T12:04:11.670Z,57.00
2023-04-03T12:06:51.204Z,57.72
2023-04-03T12:09:30.541Z,57.51
2023-04-03T12:11:59.680Z,57.96
2023-04-03T12:14:30.438Z,55.38
2023-04-03T12:17:14.326Z,56.24
2023-04-03T12:19:50.117Z,54.93
2023-04-03T12:22:31.860Z,57.12
2023-04-03T12:25:27.441Z,57.80
2023-04-03T12:28:00.188Z,58.12
2023-04-03T12:30:34.016Z,57.31
2023-04-03T12:33:20.252Z,55.26
2023-04-03T12:36:08.600Z,54.57
2023-04-03T12:39:30.894Z,56.29
2023-04-03T12:42:20.696Z,56.70
2023-04-03T12:45:02.999Z,56.77
2023-04-03T12:47:43.292Z,55.53
2023-04-03T12:50:36.282Z,55.11
2023-04-03T12:53:16.404Z,55.01
2023-04-03T12:55:45.160Z,55.23
2023-04-03T12:58:26.129Z,53.84
2023-04-03T13:01:13.550Z,54.09
2023-04-03T13:03:49.133Z,54.65
2023-04-03T13:06:22.037Z,53.71
2023-04-03T13:09:01.799Z,53.15
2023-04-03T13:11:32.914Z,52.16
2023-04-03T13:14:19.249Z,53.40
2023-04-03T13:17:06.842Z,50.56
2023-04-03T13:19:50.767Z,51.39
2023-04-03T13:22:45.830Z,50.88
2023-04-03T13:25:17.749Z,53.37
2023-04-03T13:27:46.489Z,51.28
2023-04-03T13:30:30.874Z,52.21
2023-04-03T13:33:02.711Z,50.14
2023-04-03T13:35:45.759Z,51.75
2023-04-03T13:38:19.811Z,50.76
2023-04-03T13:40:55.380Z,51.91
2023-04-03T13:43:28.610Z,51.07
2023-04-03T13:46:00.863Z,51.84
2023-04-03T13:48:46.329Z,51.55
2023-04-03T13:51:41.226Z,51.80
2023-04-03T13:54:32.232Z,50.44
2023-04-03T13:57:01.561Z,48.77
2023-04-03T13:59:35.396Z,50.51
2023-04-03T14:02:34.882Z,50.86
2023-04-03T14:05:10.637Z,50.98
2023-04-03T14:08:03.668Z,52.76
2023-04-03T14:10:43.024Z,52.79
2023-04-03T14:13:28.424Z,50.96
2023-04-03T14:16:15.439Z,52.32
2023-04-03T14:18:49.568Z,51.92
2023-04-03T14:21:23.659Z,52.90
2023-04-03T14:23:52.118Z,53.25
2023-04-03T14:26:24.717Z,53.39
2023-04-03T14:29:06.822Z,52.77
2023-04-03T14:31:43.578Z,53.89
2023-04-03T14:34:22.897Z,53.22
2023-04-03T14:36:51.027Z,53.85
2023-04-03T14:39:44.422Z,52.83
2023-04-03T14:42:20.810Z,52.88
2023-04-03T14:44:51.673Z,52.55
2023-04-03T14:47:30.408Z,53.31
2023-04-03T14:50:04.660Z,52.27
2023-04-03T14:52:38.476Z,51.96
2023-04-03T14:55:14.362Z,51.61
2023-04-03T14:57:53.623Z,52.57
2023-04-03T15:00:22.824Z,54.96
2023-04-03T15:02:56.930Z,52.22
2023-04-03T15:05:32.659Z,53.49
2023-04-03T15:08:11.604Z,52.18
2023-04-03T15:10:40.105Z,52.82
2023-04-03T15:13:11.282Z,53.18
2023-04-03T15:15:45.503Z,53.42
2023-04-03T15:18:19.435Z,53.35
2023-04-03T15:20:47.584Z,53.52
2023-04-03T15:23:19.193Z,50.94
2023-04-03T15:25:48.254Z,52.42
2023-04-03T15:28:42.958Z,52.64
2023-04-03T15:31:15.503Z,50.54
2023-04-03T15:33:43.588Z,51.65
2023-04-03T15:36:23.022Z,52.33
2023-04-03T15:39:03.200Z,52.19
2023-04-03T15:42:15.740Z,53.01
2023-04-03T15:44:57.362Z,52.26
2023-04-03T15:47:30.298Z,54.84
2023-04-03T15:50:08.322Z,54.32
2023-04-03T15:52:42.084Z,52.61
2023-04-03T15:55:21.373Z,53.28
2023-04-03T15:57:54.087Z,55.05
2023-04-03T16:00:22.473Z,54.99
2023-04-03T16:02:56.801Z,54.38
2023-04-03T16:05:24.858Z,52.55
2023-04-03T16:07:57.601Z,54.33
2023-04-03T16:10:28.274Z,54.18
2023-04-03T16:13:08.712Z,54.14
2023-04-03T16:15:37.609Z,53.04
2023-04-03T16:18:06.293Z,54.85
2023-04-03T16:20:40.355Z,53.72
2023-04-03T16:23:11.965Z,55.17
2023-04-03T16:25:49.333Z,55.41
2023-04-03T16:28:23.668Z,55.75
2023-04-03T16:30:52.054Z,54.24
2023-04-03T16:33:26.392Z,54.94
2023-04-03T16:36:03.088Z,55.36
2023-04-03T16:38:36.525Z,54.37
2023-04-03T16:41:06.852Z,55.47
2023-04-03T16:43:47.148Z,56.12
2023-04-03T16:46:20.420Z,54.59
2023-04-03T16:48:54.699Z,55.14
2023-04-03T16:51:28.581Z,54.61
2023-04-03T16:54:08.849Z,55.97
2023-04-03T16:56:52.291Z,57.25
2023-04-03T16:59:24.564Z,55.57
2023-04-03T17:01:56.030Z,55.51
2023-04-03T17:04:28.925Z,55.42
2023-04-03T17:07:09.748Z,55.46
2023-04-03T17:09:42.678Z,55.51
2023-04-03T17:12:13.381Z,55.42
2023-04-03T17:14:45.993Z,55.21
2023-04-03T17:17:28.501Z,56.48
2023-04-03T17:19:57.189Z,57.29
2023-04-03T17:22:26.244Z,56.03
2023-04-03T17:25:26.721Z,56.53
2023-04-03T17:27:58.486Z,57.06
2023-04-03T17:30:33.318Z,57.52
2023-04-03T17:33:06.244Z,58.44
2023-04-03T17:35:49.080Z,56.39
2023-04-03T17:38:50.221Z,57.45
2023-04-03T17:41:46.035Z,57.13
2023-04-03T17:44:35.014Z,57.65
2023-04-03T17:47:17.401Z,58.21
2023-04-03T17:49:53.212Z,59.22
2023-04-03T17:52:21.236Z,57.79
2023-04-03T17:54:52.922Z,56.69
2023-04-03T17:57:25.740Z,57.54
2023-04-03T18:00:03.475Z,57.83
2023-04-03T18:02:57.538Z,57.41
2023-04-03T18:05:55.473Z,56.17
2023-04-03T18:08:52.557Z,56.15
2023-04-03T18:11:28.705Z,56.16
2023-04-03T18:14:06.256Z,56.71
2023-04-03T18:16:40.935Z,57.30
2023-04-03T18:19:38.933Z,55.73
2023-04-03T18:22:36.841Z,55.46
2023-04-03T18:25:11.153Z,54.65
2023-04-03T18:27:48.040Z,54.72
2023-04-03T18:30:23.877Z,55.07
2023-04-03T18:33:03.582Z,54.57
2023-04-03T18:35:36.752Z,55.01
2023-04-03T18:38:12.492Z,55.28
2023-04-03T18:40:50.701Z,54.48
2023-04-03T18:49:45.381Z,54.96
2023-04-03T18:52:55.482Z,54.33
2023-04-03T18:55:37.336Z,54.08
2023-04-03T18:58:24.187Z,55.19
2023-04-03T19:01:00.476Z,54.60
2023-04-03T19:03:51.569Z,55.45
2023-04-03T19:06:26.201Z,55.33
2023-04-03T19:09:01.088Z,55.95
2023-04-03T19:11:38.098Z,54.08
2023-04-03T19:14:32.243Z,56.14
2023-04-03T19:17:09.890Z,54.89
2023-04-03T19:19:41.633Z,55.46
2023-04-03T19:22:14.477Z,55.71
2023-04-03T19:24:42.611Z,55.14
2023-04-03T19:27:37.255Z,55.07
2023-04-03T19:33:01.659Z,54.81
2023-04-03T19:35:44.744Z,53.46
2023-04-03T19:41:26.222Z,53.61
2023-04-03T19:44:05.474Z,54.17
2023-04-03T19:46:51.410Z,54.35
2023-04-03T19:49:39.163Z,53.58
2023-04-03T19:52:36.407Z,53.39
2023-04-03T19:55:15.126Z,53.88
2023-04-03T19:58:13.404Z,53.05
2023-04-03T20:00:44.941Z,51.36
2023-04-03T20:03:19.232Z,51.50
2023-04-03T20:08:57.798Z,50.65
2023-04-03T20:11:43.070Z,51.54
2023-04-03T20:14:40.710Z,50.97
2023-04-03T20:17:19.742Z,51.92
2023-04-03T20:20:09.949Z,51.40
2023-04-03T20:22:42.554Z,50.39
2023-04-03T20:25:43.780Z,51.37
2023-04-03T20:28:48.637Z,49.71
2023-04-03T20:31:28.886Z,51.42
2023-04-03T20:33:58.874Z,50.71
2023-04-03T20:36:29.721Z,51.65
2023-04-03T20:39:06.786Z,50.52
2023-04-03T20:41:40.536Z,50.22
2023-04-03T20:44:18.191Z,50.95
2023-04-03T20:46:53.540Z,50.80
2023-04-03T20:49:28.960Z,50.86
2023-04-03T20:52:07.366Z,51.93
2023-04-03T20:54:36.736Z,52.27
2023-04-03T21:00:08.702Z,51.94
2023-04-03T21:02:42.686Z,51.85
2023-04-03T21:05:35.282Z,51.60
2023-04-03T21:08:41.926Z,51.73
2023-04-03T21:11:48.690Z,51.08
2023-04-03T21:14:54.917Z,49.71
2023-04-03T21:17:30.263Z,50.74
2023-04-03T21:20:07.004Z,51.14
2023-04-03T21:22:45.043Z,49.79
2023-04-03T21:25:19.160Z,50.50
2023-04-03T21:27:54.090Z,49.74
2023-04-03T21:30:31.061Z,49.60
2023-04-03T21:33:03.162Z,50.57
2023-04-03T21:35:35.988Z,49.69
2023-04-03T21:38:07.543Z,49.39
2023-04-03T21:40:36.848Z,49.12
2023-04-03T21:43:10.393Z,50.17
2023-04-03T21:45:44.891Z,50.93
2023-04-03T21:48:21.619Z,49.93
2023-04-03T21:50:55.611Z,49.97
2023-04-03T21:53:32.095Z,49.23
2023-04-03T21:56:04.517Z,50.07
2023-04-03T21:58:33.968Z,50.02
2023-04-03T22:01:16.864Z,50.03
2023-04-03T22:03:50.635Z,50.68
2023-04-03T22:06:18.678Z,50.79
2023-04-03T22:08:47.704Z,51.55
2023-04-03T22:11:23.828Z,51.20
2023-04-03T22:13:59.035Z,52.24
2023-04-03T22:16:32.108Z,52.60
2023-04-03T22:19:00.948Z,51.65
2023-04-03T22:21:33.769Z,52.08
2023-04-03T22:24:06.660Z,51.91
2023-04-03T22:26:40.879Z,51.83
2023-04-03T22:29:30.830Z,51.81
2023-04-03T22:32:07.616Z,52.21
2023-04-03T22:34:39.421Z,51.85
2023-04-03T22:37:18.100Z,52.65
2023-04-03T22:39:52.281Z,52.92
2023-04-03T22:42:23.290Z,51.80
2023-04-03T22:45:05.233Z,52.50
2023-04-03T22:47:42.830Z,51.96
2023-04-03T22:50:14.791Z,53.23
2023-04-03T22:52:43.095Z,52.89
2023-04-03T22:55:19.360Z,53.69
2023-04-03T22:57:53.618Z,54.18
2023-04-03T23:00:32.097Z,53.15
2023-04-03T23:03:00.831Z,53.32
2023-04-03T23:05:36.933Z,53.89
2023-04-03T23:08:08.997Z,54.16
2023-04-03T23:10:44.808Z,54.01
2023-04-03T23:13:23.482Z,53.68
2023-04-03T23:16:01.451Z,54.61
2023-04-03T23:18:36.318Z,54.81
2023-04-03T23:21:16.889Z,54.82
2023-04-03T23:23:49.679Z,54.33
2023-04-03T23:26:17.773Z,55.64
2023-04-03T23:28:46.038Z,56.06
2023-04-03T23:31:22.867Z,56.48
2023-04-03T23:33:50.879Z,56.14
2023-04-03T23:36:24.606Z,56.30
2023-04-03T23:39:06.274Z,56.49
2023-04-03T23:41:39.928Z,56.76
2023-04-03T23:44:15.031Z,57.54
2023-04-03T23:46:55.286Z,57.47
2023-04-03T23:49:26.270Z,57.81
2023-04-03T23:51:57.789Z,58.22
2023-04-03T23:54:32.826Z,57.39
2023-04-03T23:57:06.267Z,58.52
2023-04-03T23:59:34.351Z,58.25
